createdAt,value
2018-03-19T00:00:07.300Z,11.30
2018-03-19T00:01:07.275Z,10.80
2018-03-19T00:02:07.252Z,11.00
2018-03-19T00:03:07.227Z,11.80
2018-03-19T00:04:07.205Z,12.50
2018-03-19T00:05:07.180Z,13.00
2018-03-19T00:06:07.161Z,9.50
2018-03-19T00:07:07.139Z,11.20
2018-03-19T00:08:07.112Z,11.40
2018-03-19T00:09:07.139Z,12.00
2018-03-19T00:10:07.063Z,11.20
2018-03-19T00:11:07.044Z,11.20
2018-03-19T00:12:07.022Z,12.90
2018-03-19T00:13:07.044Z,11.30
2018-03-19T00:14:06.970Z,13.20
2018-03-19T00:15:06.952Z,10.00
2018-03-19T00:16:06.924Z,12.00
2018-03-19T00:17:06.901Z,10.90
2018-03-19T00:18:06.883Z,11.80
2018-03-19T00:19:06.852Z,11.20
2018-03-19T00:20:06.835Z,13.50
2018-03-19T00:21:06.862Z,12.40
2018-03-19T00:22:06.783Z,11.30
2018-03-19T00:23:06.808Z,11.90
2018-03-19T00:24:06.736Z,12.20
2018-03-19T00:25:06.712Z,12.60
2018-03-19T00:26:06.691Z,11.30
2018-03-19T00:27:06.672Z,13.50
2018-03-19T00:28:06.643Z,13.00
2018-03-19T00:29:06.684Z,14.20
2018-03-19T00:30:06.597Z,12.10
2018-03-19T00:31:06.670Z,14.10
2018-03-19T00:32:06.547Z,12.70
2018-03-19T00:33:06.622Z,12.80
2018-03-19T00:34:06.508Z,11.10
2018-03-19T00:35:06.480Z,13.10
2018-03-19T00:36:06.459Z,11.90
2018-03-19T00:37:06.431Z,13.60
2018-03-19T00:38:06.405Z,13.60
2018-03-19T00:39:06.383Z,12.20
2018-03-19T00:40:06.369Z,14.40
2018-03-19T00:41:06.338Z,12.50
2018-03-19T00:42:06.313Z,12.30
2018-03-19T00:43:06.291Z,12.40
2018-03-19T00:44:06.263Z,11.10
2018-03-19T00:45:06.257Z,13.90
2018-03-19T00:46:06.215Z,13.00
2018-03-19T00:47:06.193Z,14.70
2018-03-19T00:48:06.171Z,12.30
2018-03-19T00:49:06.149Z,12.50
2018-03-19T00:50:06.122Z,12.50
2018-03-19T00:51:06.100Z,13.80
2018-03-19T00:52:06.077Z,14.80
2018-03-19T00:53:06.059Z,11.30
2018-03-19T00:54:06.036Z,13.70
2018-03-19T00:55:06.008Z,12.10
2018-03-19T00:56:05.978Z,13.70
2018-03-19T00:57:05.962Z,11.80
2018-03-19T00:58:05.932Z,13.00
2018-03-19T00:59:05.910Z,11.80
2018-03-19T01:00:05.887Z,12.30
2018-03-19T01:01:05.864Z,12.00
2018-03-19T01:02:05.837Z,15.90
2018-03-19T01:03:05.813Z,12.00
2018-03-19T01:04:05.793Z,13.10
2018-03-19T01:05:05.780Z,13.30
2018-03-19T01:06:05.743Z,13.00
2018-03-19T01:07:05.722Z,12.90
2018-03-19T01:08:05.703Z,14.10
2018-03-19T01:09:05.677Z,12.40
2018-03-19T01:10:05.649Z,11.80
2018-03-19T01:11:05.626Z,13.40
2018-03-19T01:12:05.603Z,12.70
2018-03-19T01:13:05.577Z,11.70
2018-03-19T01:14:05.560Z,13.20
2018-03-19T01:15:05.535Z,11.90
2018-03-19T01:16:05.509Z,11.90
2018-03-19T01:17:05.483Z,13.00
2018-03-19T01:18:05.464Z,14.00
2018-03-19T01:19:05.440Z,13.30
2018-03-19T01:20:05.413Z,14.00
2018-03-19T01:21:05.392Z,14.40
2018-03-19T01:22:05.368Z,13.80
2018-03-19T01:23:05.346Z,14.80
2018-03-19T01:24:05.321Z,14.50
2018-03-19T01:25:05.294Z,12.60
2018-03-19T01:26:05.275Z,13.10
2018-03-19T01:27:05.250Z,12.50
2018-03-19T01:28:05.275Z,14.10
2018-03-19T01:29:05.202Z,11.80
2018-03-19T01:30:05.178Z,15.20
2018-03-19T01:31:05.154Z,14.10
2018-03-19T01:32:05.133Z,13.60
2018-03-19T01:33:05.107Z,12.40
2018-03-19T01:34:05.082Z,13.70
2018-03-19T01:35:05.060Z,14.10
2018-03-19T01:36:05.034Z,12.20
2018-03-19T01:37:05.014Z,13.80
2018-03-19T01:38:04.987Z,13.10
2018-03-19T01:39:04.963Z,15.00
2018-03-19T01:40:04.939Z,12.30
2018-03-19T01:41:04.916Z,15.90
2018-03-19T01:42:04.892Z,12.40
2018-03-19T01:43:04.867Z,13.30
2018-03-19T01:44:04.843Z,13.80
2018-03-19T01:45:04.820Z,12.70
2018-03-19T01:46:04.796Z,15.40
2018-03-19T01:47:04.776Z,13.90
2018-03-19T01:48:04.749Z,14.60
2018-03-19T01:49:04.734Z,14.10
2018-03-19T01:50:04.703Z,13.60
2018-03-19T01:51:04.678Z,14.10
2018-03-19T01:52:04.654Z,12.70
2018-03-19T01:53:04.630Z,13.50
2018-03-19T01:54:04.662Z,13.80
2018-03-19T01:55:04.582Z,12.80
2018-03-19T01:56:04.611Z,13.80
2018-03-19T01:57:04.541Z,14.30
2018-03-19T01:58:04.510Z,13.30
2018-03-19T01:59:04.486Z,13.60
2018-03-19T02:00:04.465Z,12.40
2018-03-19T02:01:04.442Z,12.40
2018-03-19T02:02:04.414Z,13.80
2018-03-19T02:03:04.391Z,13.20
2018-03-19T02:04:04.381Z,12.90
2018-03-19T02:05:04.350Z,13.50
2018-03-19T02:06:04.320Z,13.80
2018-03-19T02:07:04.297Z,13.50
2018-03-19T02:08:04.272Z,13.40
2018-03-19T02:09:04.247Z,13.10
2018-03-19T02:10:04.223Z,13.30
2018-03-19T02:11:04.200Z,14.20
2018-03-19T02:12:04.175Z,12.70
2018-03-19T02:13:04.151Z,16.00
2018-03-19T02:14:04.129Z,12.90
2018-03-19T02:15:04.113Z,13.00
2018-03-19T02:16:04.083Z,12.40
2018-03-19T02:17:04.059Z,13.10
2018-03-19T02:18:04.035Z,14.20
2018-03-19T02:19:04.015Z,12.50
2018-03-19T02:20:03.993Z,13.40
2018-03-19T02:21:03.964Z,13.10
2018-03-19T02:22:03.938Z,15.90
2018-03-19T02:23:03.922Z,13.30
2018-03-19T02:24:03.913Z,15.40
2018-03-19T02:25:03.865Z,11.60
2018-03-19T02:26:03.842Z,13.10
2018-03-19T02:27:03.834Z,13.50
2018-03-19T02:28:03.802Z,14.50
2018-03-19T02:29:03.778Z,13.10
2018-03-19T02:30:03.753Z,13.90
2018-03-19T02:31:03.723Z,15.00
2018-03-19T02:32:03.703Z,12.80
2018-03-19T02:33:03.680Z,13.50
2018-03-19T02:34:03.654Z,14.00
2018-03-19T02:35:03.635Z,12.80
2018-03-19T02:36:03.618Z,14.80
2018-03-19T02:37:03.582Z,12.30
2018-03-19T02:38:03.565Z,12.60
2018-03-19T02:39:03.536Z,13.60
2018-03-19T02:40:03.509Z,14.40
2018-03-19T02:41:03.488Z,14.10
2018-03-19T02:42:03.461Z,13.40
2018-03-19T02:43:03.443Z,13.30
2018-03-19T02:44:03.415Z,12.20
2018-03-19T02:45:03.388Z,16.50
2018-03-19T02:46:03.365Z,12.40
2018-03-19T02:47:03.343Z,13.70
2018-03-19T02:48:03.318Z,13.40
2018-03-19T02:49:03.302Z,14.50
2018-03-19T02:50:03.271Z,12.40
2018-03-19T02:51:03.251Z,14.40
2018-03-19T02:52:03.225Z,13.90
2018-03-19T02:53:03.198Z,14.90
2018-03-19T02:54:03.186Z,13.90
2018-03-19T02:55:03.151Z,14.00
2018-03-19T02:56:03.130Z,12.20
2018-03-19T02:57:03.113Z,12.50
2018-03-19T02:58:03.083Z,12.80
2018-03-19T02:59:03.055Z,13.40
2018-03-19T03:00:03.034Z,14.40
2018-03-19T03:01:03.009Z,13.60
2018-03-19T03:02:02.982Z,14.10
2018-03-19T03:03:02.959Z,14.00
2018-03-19T03:04:02.936Z,12.60
2018-03-19T03:05:02.912Z,14.20
2018-03-19T03:06:02.891Z,14.70
2018-03-19T03:07:02.868Z,14.40
2018-03-19T03:08:02.845Z,12.00
2018-03-19T03:09:02.824Z,12.90
2018-03-19T03:10:02.845Z,13.40
2018-03-19T03:11:02.769Z,14.60
2018-03-19T03:12:02.747Z,14.80
2018-03-19T03:13:02.722Z,14.80
2018-03-19T03:14:02.697Z,13.10
2018-03-19T03:15:02.676Z,12.00
2018-03-19T03:16:02.651Z,11.10
2018-03-19T03:17:02.673Z,11.30
2018-03-19T03:18:02.602Z,12.20
2018-03-19T03:19:02.633Z,11.30
2018-03-19T03:20:02.555Z,12.70
2018-03-19T03:21:02.587Z,11.20
2018-03-19T03:22:02.507Z,12.40
2018-03-19T03:23:02.482Z,10.90
2018-03-19T03:24:02.482Z,15.50
2018-03-19T03:25:02.434Z,12.50
2018-03-19T03:26:02.409Z,12.00
2018-03-19T03:27:02.386Z,14.60
2018-03-19T03:28:02.360Z,12.60
2018-03-19T03:29:02.339Z,15.50
2018-03-19T03:30:02.312Z,11.50
2018-03-19T03:31:02.293Z,12.30
2018-03-19T03:32:02.268Z,12.90
2018-03-19T03:33:02.243Z,12.60
2018-03-19T03:34:02.229Z,12.10
2018-03-19T03:35:02.240Z,13.10
2018-03-19T03:36:02.174Z,13.60
2018-03-19T03:37:02.148Z,12.00
2018-03-19T03:38:02.124Z,11.30
2018-03-19T03:39:02.102Z,12.90
2018-03-19T03:40:02.073Z,13.00
2018-03-19T03:41:02.048Z,14.40
2018-03-19T03:42:02.027Z,11.50
2018-03-19T03:43:02.003Z,12.10
2018-03-19T03:44:01.980Z,12.50
2018-03-19T03:45:01.960Z,12.60
2018-03-19T03:46:01.933Z,13.40
2018-03-19T03:47:01.906Z,12.10
2018-03-19T03:48:01.881Z,12.80
2018-03-19T03:49:01.862Z,11.90
2018-03-19T03:50:01.832Z,15.30
2018-03-19T03:51:01.812Z,11.80
2018-03-19T03:52:01.795Z,15.00
2018-03-19T03:53:01.764Z,14.80
2018-03-19T03:54:01.736Z,13.60
2018-03-19T03:55:01.715Z,11.40
2018-03-19T03:56:01.688Z,15.30
2018-03-19T03:57:01.670Z,14.50
2018-03-19T03:58:01.652Z,12.40
2018-03-19T03:59:01.617Z,12.10
2018-03-19T04:00:01.640Z,12.80
2018-03-19T04:01:01.569Z,12.90
2018-03-19T04:02:01.544Z,10.90
2018-03-19T04:03:01.520Z,12.40
2018-03-19T04:04:01.498Z,12.00
2018-03-19T04:05:01.540Z,15.20
2018-03-19T04:06:01.447Z,13.20
2018-03-19T04:07:01.426Z,12.00
2018-03-19T04:08:01.400Z,13.50
2018-03-19T04:09:01.378Z,12.70
2018-03-19T04:10:01.353Z,12.90
2018-03-19T04:11:01.330Z,14.10
2018-03-19T04:12:01.306Z,13.60
2018-03-19T04:13:01.299Z,11.40
2018-03-19T04:14:01.258Z,12.40
2018-03-19T04:15:01.231Z,13.60
2018-03-19T04:16:01.207Z,15.20
2018-03-19T04:17:01.184Z,11.60
2018-03-19T04:18:01.169Z,11.70
2018-03-19T04:19:01.141Z,14.30
2018-03-19T04:20:01.114Z,13.00
2018-03-19T04:21:01.091Z,13.20
2018-03-19T04:22:01.111Z,12.00
2018-03-19T04:23:01.038Z,12.70
2018-03-19T04:24:01.015Z,13.70
2018-03-19T04:25:00.990Z,13.10
2018-03-19T04:26:00.965Z,12.90
2018-03-19T04:27:00.942Z,14.30
2018-03-19T04:28:00.991Z,13.30
2018-03-19T04:29:00.895Z,14.50
2018-03-19T04:30:00.871Z,12.20
2018-03-19T04:31:00.845Z,14.70
2018-03-19T04:32:00.828Z,13.70
2018-03-19T04:33:00.799Z,16.10
2018-03-19T04:34:00.825Z,13.50
2018-03-19T04:35:00.750Z,12.60
2018-03-19T04:36:00.726Z,13.50
2018-03-19T04:37:00.706Z,13.40
2018-03-19T04:38:00.680Z,12.00
2018-03-19T04:39:00.657Z,13.30
2018-03-19T04:40:00.647Z,13.10
2018-03-19T04:41:00.606Z,13.10
2018-03-19T04:42:00.585Z,13.20
2018-03-19T04:43:00.569Z,11.80
2018-03-19T04:44:00.535Z,12.20
2018-03-19T04:45:00.512Z,14.80
2018-03-19T04:46:00.486Z,15.50
2018-03-19T04:47:00.468Z,13.40
2018-03-19T04:48:00.436Z,11.90
2018-03-19T04:49:00.415Z,12.30
2018-03-19T04:50:00.444Z,11.90
2018-03-19T04:51:00.367Z,14.30
2018-03-19T04:52:00.350Z,13.70
2018-03-19T04:53:00.318Z,13.20
2018-03-19T04:54:00.297Z,13.30
2018-03-19T04:55:00.270Z,14.20
2018-03-19T04:56:00.246Z,13.80
2018-03-19T04:57:00.218Z,12.90
2018-03-19T04:58:00.196Z,11.30
2018-03-19T04:59:00.172Z,13.40
2018-03-19T05:00:00.153Z,13.60
2018-03-19T05:01:00.123Z,11.50
2018-03-19T05:02:00.099Z,12.70
2018-03-19T05:03:00.075Z,14.80
2018-03-19T05:04:00.052Z,14.40
2018-03-19T05:05:00.026Z,13.40
2018-03-19T05:06:00.004Z,13.60
2018-03-19T05:06:59.984Z,14.10
2018-03-19T05:07:59.954Z,13.60
2018-03-19T05:08:59.933Z,17.50
2018-03-19T05:09:59.912Z,13.80
2018-03-19T05:10:59.884Z,15.60
2018-03-19T05:11:59.858Z,15.70
2018-03-19T05:12:59.833Z,14.00
2018-03-19T05:13:59.809Z,15.10
2018-03-19T05:14:59.783Z,15.60
2018-03-19T05:15:59.765Z,14.00
2018-03-19T05:18:01.148Z,11.30
2018-03-19T05:19:01.094Z,12.70
2018-03-19T05:20:01.069Z,14.10
2018-03-19T05:21:01.046Z,15.80
2018-03-19T05:22:01.023Z,15.40
2018-03-19T05:23:00.997Z,13.90
2018-03-19T05:24:00.972Z,15.80
2018-03-19T05:25:00.950Z,16.30
2018-03-19T05:26:00.934Z,15.20
2018-03-19T05:27:00.903Z,15.30
2018-03-19T05:28:00.877Z,15.40
2018-03-19T05:29:00.856Z,14.90
2018-03-19T05:30:00.827Z,18.90
2018-03-19T05:31:00.802Z,19.40
2018-03-19T05:32:00.783Z,16.70
2018-03-19T05:33:00.760Z,15.20
2018-03-19T05:34:00.731Z,16.00
2018-03-19T05:35:00.708Z,16.00
2018-03-19T05:36:00.681Z,17.80
2018-03-19T05:37:00.656Z,17.00
2018-03-19T05:38:00.640Z,17.80
2018-03-19T05:39:00.608Z,15.20
2018-03-19T05:40:00.585Z,16.90
2018-03-19T05:41:00.566Z,14.50
2018-03-19T05:42:00.539Z,15.00
2018-03-19T05:43:00.514Z,16.20
2018-03-19T05:44:00.490Z,16.40
2018-03-19T05:45:00.473Z,17.20
2018-03-19T05:46:00.447Z,19.30
2018-03-19T05:47:00.415Z,17.40
2018-03-19T05:48:00.394Z,16.80
2018-03-19T05:49:00.367Z,16.70
2018-03-19T05:50:00.348Z,17.30
2018-03-19T05:51:00.330Z,17.60
2018-03-19T05:52:00.296Z,16.20
2018-03-19T05:53:00.272Z,16.40
2018-03-19T05:54:00.254Z,16.80
2018-03-19T05:55:00.227Z,19.10
2018-03-19T05:56:00.206Z,15.50
2018-03-19T05:57:00.176Z,17.40
2018-03-19T05:58:00.158Z,16.60
2018-03-19T05:59:00.133Z,16.80
2018-03-19T06:00:00.104Z,17.90
2018-03-19T06:01:00.129Z,16.30
2018-03-19T06:02:00.053Z,15.90
2018-03-19T06:03:00.031Z,18.60
2018-03-19T06:04:00.007Z,18.00
2018-03-19T06:04:59.983Z,17.20
2018-03-19T06:05:59.960Z,17.30
2018-03-19T06:06:59.934Z,16.40
2018-03-19T06:07:59.911Z,17.40
2018-03-19T06:08:59.886Z,15.30
2018-03-19T06:09:59.862Z,21.10
2018-03-19T06:10:59.839Z,20.00
2018-03-19T06:11:59.815Z,17.70
2018-03-19T06:12:59.791Z,18.40
2018-03-19T06:13:59.767Z,17.20
2018-03-19T06:14:59.747Z,16.20
2018-03-19T06:15:59.721Z,16.50
2018-03-19T06:16:59.698Z,16.30
2018-03-19T06:17:59.671Z,18.10
2018-03-19T06:18:59.657Z,17.30
2018-03-19T06:19:59.623Z,16.50
2018-03-19T06:20:59.638Z,17.80
2018-03-19T06:21:59.577Z,19.00
2018-03-19T06:22:59.557Z,17.00
2018-03-19T06:23:59.526Z,16.20
2018-03-19T06:24:59.507Z,16.20
2018-03-19T06:25:59.488Z,18.00
2018-03-19T06:26:59.454Z,17.60
2018-03-19T06:27:59.490Z,15.40
2018-03-19T06:28:59.405Z,15.10
2018-03-19T06:29:59.392Z,15.70
2018-03-19T06:30:59.365Z,15.70
2018-03-19T06:31:59.336Z,14.30
2018-03-19T06:32:59.315Z,16.10
2018-03-19T06:33:59.291Z,16.20
2018-03-19T06:34:59.267Z,16.80
2018-03-19T06:35:59.249Z,14.70
2018-03-19T06:36:59.217Z,15.70
2018-03-19T06:37:59.196Z,15.20
2018-03-19T06:38:59.174Z,16.80
2018-03-19T06:39:59.152Z,15.90
2018-03-19T06:40:59.156Z,13.80
2018-03-19T06:41:59.108Z,13.80
2018-03-19T06:42:59.084Z,13.90
2018-03-19T06:43:59.054Z,17.40
2018-03-19T06:44:59.030Z,17.80
2018-03-19T06:45:59.008Z,17.10
2018-03-19T06:46:58.989Z,15.90
2018-03-19T06:47:58.960Z,15.00
2018-03-19T06:48:58.937Z,12.50
2018-03-19T06:49:58.916Z,14.00
2018-03-19T06:50:58.895Z,11.90
2018-03-19T06:51:58.863Z,13.20
2018-03-19T06:52:58.843Z,12.60
2018-03-19T06:53:58.818Z,13.80
2018-03-19T06:54:58.795Z,14.00
2018-03-19T06:55:58.769Z,11.40
2018-03-19T06:56:58.748Z,13.50
2018-03-19T06:57:58.727Z,10.70
2018-03-19T06:58:58.703Z,11.20
2018-03-19T06:59:58.682Z,10.90
2018-03-19T07:00:58.675Z,13.10
2018-03-19T07:01:58.633Z,11.90
2018-03-19T07:02:58.613Z,12.90
2018-03-19T07:03:58.588Z,11.50
2018-03-19T07:04:58.566Z,12.40
2018-03-19T07:05:58.546Z,12.20
2018-03-19T07:06:58.520Z,13.20
2018-03-19T07:07:58.491Z,14.20
2018-03-19T07:08:58.474Z,12.00
2018-03-19T07:09:58.886Z,13.20
2018-03-19T07:10:58.424Z,11.20
2018-03-19T07:11:58.399Z,11.80
2018-03-19T07:12:58.378Z,13.20
2018-03-19T07:13:58.355Z,11.80
2018-03-19T07:14:58.333Z,12.60
2018-03-19T07:15:58.316Z,11.50
2018-03-19T07:16:58.295Z,10.40
2018-03-19T07:17:58.264Z,11.80
2018-03-19T07:18:58.250Z,12.50
2018-03-19T07:19:58.215Z,11.70
2018-03-19T07:20:58.196Z,11.50
2018-03-19T07:21:58.173Z,11.60
2018-03-19T07:22:58.151Z,11.30
2018-03-19T07:23:58.132Z,12.20
2018-03-19T07:24:58.103Z,9.90
2018-03-19T07:25:58.083Z,13.10
2018-03-19T07:26:58.058Z,11.70
2018-03-19T07:27:58.033Z,13.00
2018-03-19T07:28:58.015Z,12.80
2018-03-19T07:29:57.990Z,13.30
2018-03-19T07:30:57.966Z,11.80
2018-03-19T07:31:57.943Z,11.80
2018-03-19T07:32:57.923Z,12.10
2018-03-19T07:33:57.900Z,12.40
2018-03-19T07:34:57.880Z,12.10
2018-03-19T07:35:57.855Z,11.30
2018-03-19T07:36:57.832Z,12.40
2018-03-19T07:37:57.808Z,11.60
2018-03-19T07:38:57.788Z,12.40
2018-03-19T07:39:57.766Z,11.70
2018-03-19T07:40:57.767Z,11.70
2018-03-19T07:41:57.724Z,14.40
2018-03-19T07:42:57.701Z,11.60
2018-03-19T07:43:57.726Z,11.80
2018-03-19T07:44:57.652Z,12.60
2018-03-19T07:45:57.634Z,11.70
2018-03-19T07:46:57.605Z,14.90
2018-03-19T07:47:57.584Z,11.10
2018-03-19T07:48:57.559Z,13.60
2018-03-19T07:49:57.547Z,11.40
2018-03-19T07:50:57.519Z,12.00
2018-03-19T07:51:57.496Z,10.50
2018-03-19T07:52:57.474Z,11.30
2018-03-19T07:53:57.450Z,12.20
2018-03-19T07:54:57.531Z,9.50
2018-03-19T07:55:57.406Z,10.60
2018-03-19T07:56:57.451Z,12.00
2018-03-19T07:57:57.363Z,12.60
2018-03-19T07:58:57.492Z,12.50
2018-03-19T07:59:57.324Z,11.20
2018-03-19T08:00:57.300Z,11.70
2018-03-19T08:01:57.276Z,11.50
2018-03-19T08:02:57.262Z,11.80
2018-03-19T08:03:57.231Z,10.40
2018-03-19T08:04:57.212Z,9.20
2018-03-19T08:05:57.192Z,11.30
2018-03-19T08:06:57.266Z,10.70
2018-03-19T08:07:57.149Z,9.30
2018-03-19T08:08:57.134Z,9.80
2018-03-19T08:09:57.104Z,10.50
2018-03-19T08:10:57.087Z,10.30
2018-03-19T08:11:57.062Z,9.00
2018-03-19T08:12:57.045Z,8.50
2018-03-19T08:13:57.021Z,10.00
2018-03-19T08:14:57.005Z,7.60
2018-03-19T08:15:56.991Z,9.50
2018-03-19T08:16:56.966Z,9.30
2018-03-19T08:17:56.946Z,9.50
2018-03-19T08:18:56.989Z,7.40
2018-03-19T08:19:56.903Z,7.30
2018-03-19T08:20:56.895Z,8.30
2018-03-19T08:21:56.872Z,7.50
2018-03-19T08:22:56.861Z,7.80
2018-03-19T08:23:56.833Z,8.40
2018-03-19T08:24:56.820Z,9.60
2018-03-19T08:25:56.852Z,8.70
2018-03-19T08:26:56.792Z,7.70
2018-03-19T08:27:56.765Z,7.90
2018-03-19T08:28:56.754Z,6.70
2018-03-19T08:29:56.737Z,7.30
2018-03-19T08:30:56.722Z,8.10
2018-03-19T08:31:56.702Z,9.00
2018-03-19T08:32:56.692Z,8.80
2018-03-19T08:33:56.675Z,7.00
2018-03-19T08:34:56.715Z,7.00
2018-03-19T08:35:56.652Z,5.50
2018-03-19T08:36:56.635Z,6.10
2018-03-19T08:37:56.643Z,6.80
2018-03-19T08:38:56.608Z,6.90
2018-03-19T08:39:56.602Z,7.00
2018-03-19T08:40:56.639Z,6.30
2018-03-19T08:41:56.573Z,7.20
2018-03-19T08:42:56.565Z,6.60
2018-03-19T08:43:56.557Z,6.40
2018-03-19T08:44:56.541Z,5.60
2018-03-19T08:45:56.533Z,6.80
2018-03-19T08:46:56.522Z,7.70
2018-03-19T08:47:56.513Z,6.10
2018-03-19T08:48:56.503Z,6.10
2018-03-19T08:49:56.493Z,6.10
2018-03-19T08:50:56.484Z,7.40
2018-03-19T08:51:56.479Z,5.90
2018-03-19T08:52:56.472Z,6.00
2018-03-19T08:53:56.462Z,5.70
2018-03-19T08:54:56.455Z,7.70
2018-03-19T08:55:56.445Z,6.20
2018-03-19T08:56:56.439Z,6.80
2018-03-19T08:57:56.436Z,6.10
2018-03-19T08:58:56.423Z,6.80
2018-03-19T08:59:56.424Z,7.10
2018-03-19T09:00:56.415Z,7.20
2018-03-19T09:01:56.404Z,5.80
2018-03-19T09:02:56.402Z,6.50
2018-03-19T09:03:56.451Z,6.30
2018-03-19T09:04:56.387Z,5.40
2018-03-19T09:05:56.384Z,6.00
2018-03-19T09:06:56.385Z,6.30
2018-03-19T09:07:56.373Z,5.70
2018-03-19T09:08:56.370Z,6.40
2018-03-19T09:09:56.370Z,5.70
2018-03-19T09:10:56.362Z,4.90
2018-03-19T09:11:56.356Z,5.10
2018-03-19T09:12:56.350Z,5.40
2018-03-19T09:13:56.347Z,5.70
2018-03-19T09:14:56.354Z,6.00
2018-03-19T09:15:56.338Z,5.70
2018-03-19T09:16:56.337Z,7.00
2018-03-19T09:17:56.336Z,5.90
2018-03-19T09:18:56.384Z,6.00
2018-03-19T09:19:56.328Z,5.30
2018-03-19T09:20:56.324Z,6.00
2018-03-19T09:21:56.328Z,5.40
2018-03-19T09:22:56.321Z,4.40
2018-03-19T09:23:56.319Z,5.70
2018-03-19T09:24:56.319Z,5.30
2018-03-19T09:25:56.315Z,5.30
2018-03-19T09:26:56.313Z,4.70
2018-03-19T09:27:56.324Z,5.90
2018-03-19T09:28:56.311Z,4.90
2018-03-19T09:29:56.318Z,5.70
2018-03-19T09:30:56.312Z,6.20
2018-03-19T09:31:56.310Z,6.30
2018-03-19T09:32:56.310Z,5.70
2018-03-19T09:33:56.312Z,5.50
2018-03-19T09:34:56.311Z,6.10
2018-03-19T09:35:56.306Z,5.50
2018-03-19T09:36:56.305Z,5.40
2018-03-19T09:37:56.305Z,5.10
2018-03-19T09:38:56.310Z,6.50
2018-03-19T09:39:56.304Z,5.40
2018-03-19T09:40:56.305Z,4.80
2018-03-19T09:41:56.304Z,4.30
2018-03-19T09:42:56.357Z,4.30
2018-03-19T09:43:56.313Z,6.70
2018-03-19T09:44:56.307Z,5.10
2018-03-19T09:45:56.311Z,4.60
2018-03-19T09:46:56.316Z,4.60
2018-03-19T09:47:56.311Z,4.70
2018-03-19T09:48:56.317Z,5.00
2018-03-19T09:49:56.324Z,5.10
2018-03-19T09:50:56.313Z,4.20
2018-03-19T09:51:56.314Z,5.50
2018-03-19T09:52:56.313Z,5.30
2018-03-19T09:53:56.323Z,4.60
2018-03-19T09:54:56.319Z,5.20
2018-03-19T09:55:56.326Z,4.90
2018-03-19T09:56:56.322Z,4.90
2018-03-19T09:57:56.326Z,4.80
2018-03-19T09:58:56.372Z,4.60
2018-03-19T09:59:56.325Z,4.80
2018-03-19T10:00:56.325Z,5.20
2018-03-19T10:01:56.346Z,4.20
2018-03-19T10:02:56.330Z,4.90
2018-03-19T10:03:56.333Z,4.20
2018-03-19T10:04:56.333Z,5.50
2018-03-19T10:05:56.336Z,4.20
2018-03-19T10:06:56.346Z,4.10
2018-03-19T10:07:56.343Z,5.20
2018-03-19T10:08:56.342Z,4.20
2018-03-19T10:09:56.344Z,4.10
2018-03-19T10:10:56.359Z,3.40
2018-03-19T10:11:56.350Z,3.60
2018-03-19T10:12:56.350Z,4.10
2018-03-19T10:13:56.353Z,3.90
2018-03-19T10:14:56.357Z,5.10
2018-03-19T10:15:56.367Z,3.60
2018-03-19T10:16:56.380Z,3.60
2018-03-19T10:17:56.376Z,3.80
2018-03-19T10:18:56.364Z,4.60
2018-03-19T10:19:56.375Z,4.90
2018-03-19T10:20:56.374Z,5.20
2018-03-19T10:21:56.376Z,4.10
2018-03-19T10:22:56.376Z,5.20
2018-03-19T10:23:56.378Z,4.10
2018-03-19T10:24:56.380Z,3.70
2018-03-19T10:25:56.384Z,4.90
2018-03-19T10:26:56.390Z,5.80
2018-03-19T10:27:56.396Z,4.80
2018-03-19T10:28:56.394Z,4.90
2018-03-19T10:29:56.397Z,4.60
2018-03-19T10:30:56.399Z,4.00
2018-03-19T10:31:56.404Z,4.70
2018-03-19T10:32:56.405Z,4.40
2018-03-19T10:33:56.412Z,3.40
2018-03-19T10:34:56.413Z,3.80
2018-03-19T10:35:56.429Z,4.30
2018-03-19T10:36:56.421Z,3.30
2018-03-19T10:37:56.421Z,4.30
2018-03-19T10:38:56.428Z,4.30
2018-03-19T10:39:56.474Z,3.70
2018-03-19T10:40:56.440Z,4.10
2018-03-19T10:41:56.438Z,4.40
2018-03-19T10:42:56.445Z,3.80
2018-03-19T10:43:56.442Z,4.60
2018-03-19T10:44:56.448Z,4.20
2018-03-19T10:45:56.453Z,3.90
2018-03-19T10:46:56.455Z,3.80
2018-03-19T10:47:56.471Z,4.30
2018-03-19T10:48:56.465Z,4.10
2018-03-19T10:49:56.521Z,4.60
2018-03-19T10:50:56.474Z,3.20
2018-03-19T10:51:56.474Z,3.50
2018-03-19T10:52:56.491Z,3.90
2018-03-19T10:53:56.480Z,3.90
2018-03-19T10:54:56.483Z,4.50
2018-03-19T10:55:56.489Z,4.50
2018-03-19T10:56:56.495Z,4.60
2018-03-19T10:57:56.578Z,5.80
2018-03-19T10:58:56.504Z,4.00
2018-03-19T10:59:56.509Z,4.60
2018-03-19T11:00:56.511Z,4.20
2018-03-19T11:01:56.518Z,5.80
2018-03-19T11:02:56.527Z,4.20
2018-03-19T11:03:56.522Z,5.00
2018-03-19T11:04:56.531Z,4.70
2018-03-19T11:05:56.532Z,3.80
2018-03-19T11:06:56.534Z,4.60
2018-03-19T11:07:56.539Z,4.40
2018-03-19T11:08:56.544Z,3.40
2018-03-19T11:09:56.550Z,4.80
2018-03-19T11:10:56.552Z,4.60
2018-03-19T11:11:56.680Z,3.90
2018-03-19T11:12:56.562Z,3.60
2018-03-19T11:13:56.593Z,4.10
2018-03-19T11:14:56.571Z,4.00
2018-03-19T11:15:56.572Z,5.00
2018-03-19T11:16:56.580Z,3.80
2018-03-19T11:17:56.582Z,3.70
2018-03-19T11:18:56.586Z,5.30
2018-03-19T11:19:56.591Z,5.50
2018-03-19T11:20:56.705Z,4.00
2018-03-19T11:21:56.598Z,4.60
2018-03-19T11:22:56.656Z,4.10
2018-03-19T11:23:56.611Z,5.00
2018-03-19T11:24:56.614Z,4.80
2018-03-19T11:25:56.669Z,4.30
2018-03-19T11:26:56.623Z,4.70
2018-03-19T11:27:56.625Z,4.10
2018-03-19T11:28:56.626Z,4.60
2018-03-19T11:29:56.632Z,4.50
2018-03-19T11:30:56.646Z,3.70
2018-03-19T11:31:56.646Z,5.00
2018-03-19T11:32:56.646Z,4.20
2018-03-19T11:33:56.655Z,4.60
2018-03-19T11:34:56.657Z,3.90
2018-03-19T11:35:56.659Z,4.10
2018-03-19T11:36:56.713Z,3.50
2018-03-19T11:37:56.669Z,3.80
2018-03-19T11:38:56.675Z,3.80
2018-03-19T11:39:56.677Z,4.80
2018-03-19T11:40:56.685Z,4.40
2018-03-19T11:41:56.692Z,4.20
2018-03-19T11:42:56.704Z,4.40
2018-03-19T11:43:56.701Z,3.90
2018-03-19T11:44:56.701Z,4.50
2018-03-19T11:45:56.751Z,4.40
2018-03-19T11:46:56.720Z,4.70
2018-03-19T11:47:56.714Z,5.10
2018-03-19T11:48:56.718Z,3.60
2018-03-19T11:49:56.723Z,3.80
2018-03-19T11:50:56.734Z,3.30
2018-03-19T11:51:56.735Z,4.70
2018-03-19T11:52:56.749Z,5.30
2018-03-19T11:53:56.742Z,4.40
2018-03-19T11:54:56.750Z,4.10
2018-03-19T11:55:56.752Z,3.80
2018-03-19T11:56:56.755Z,4.00
2018-03-19T11:57:56.763Z,3.30
2018-03-19T11:58:56.768Z,6.00
2018-03-19T11:59:56.772Z,3.30
2018-03-19T12:00:56.774Z,4.10
2018-03-19T12:01:56.784Z,3.50
2018-03-19T12:02:56.786Z,4.90
2018-03-19T12:03:56.789Z,4.10
2018-03-19T12:04:56.798Z,4.40
2018-03-19T12:05:56.799Z,3.50
2018-03-19T12:06:56.810Z,3.60
2018-03-19T12:07:56.805Z,3.80
2018-03-19T12:08:56.825Z,5.10
2018-03-19T12:09:56.815Z,4.00
2018-03-19T12:10:56.873Z,3.60
2018-03-19T12:11:56.826Z,3.20
2018-03-19T12:12:56.883Z,4.00
2018-03-19T12:13:56.833Z,3.20
2018-03-19T12:14:56.846Z,3.10
2018-03-19T12:15:56.841Z,3.20
2018-03-19T12:16:56.845Z,3.50
2018-03-19T12:17:56.850Z,3.60
2018-03-19T12:18:56.856Z,3.20
2018-03-19T12:19:56.866Z,2.90
2018-03-19T12:20:56.875Z,3.80
2018-03-19T12:21:56.869Z,3.80
2018-03-19T12:22:56.870Z,3.20
2018-03-19T12:23:56.891Z,3.30
2018-03-19T12:24:56.885Z,4.30
2018-03-19T12:25:56.986Z,3.40
2018-03-19T12:26:56.889Z,4.10
2018-03-19T12:27:56.903Z,4.40
2018-03-19T12:28:56.895Z,3.70
2018-03-19T12:29:56.951Z,4.00
2018-03-19T12:30:56.905Z,3.80
2018-03-19T12:31:56.967Z,3.60
2018-03-19T12:32:56.914Z,3.40
2018-03-19T12:33:56.922Z,3.60
2018-03-19T12:34:56.924Z,3.00
2018-03-19T12:35:56.924Z,3.40
2018-03-19T12:36:56.924Z,4.40
2018-03-19T12:37:56.934Z,3.30
2018-03-19T12:38:56.936Z,6.50
2018-03-19T12:39:56.940Z,3.60
2018-03-19T12:40:56.946Z,3.10
2018-03-19T12:41:56.962Z,3.00
2018-03-19T12:42:56.953Z,3.60
2018-03-19T12:43:56.952Z,3.10
2018-03-19T12:44:56.961Z,3.80
2018-03-19T12:45:56.963Z,3.10
2018-03-19T12:46:56.974Z,3.90
2018-03-19T12:47:56.971Z,3.30
2018-03-19T12:48:56.979Z,3.60
2018-03-19T12:49:56.978Z,3.20
2018-03-19T12:50:57.010Z,3.20
2018-03-19T12:51:56.985Z,3.70
2018-03-19T12:52:56.995Z,4.10
2018-03-19T12:53:57.000Z,3.00
2018-03-19T12:54:57.003Z,3.70
2018-03-19T12:55:57.048Z,3.10
2018-03-19T12:56:57.004Z,3.10
2018-03-19T12:57:57.011Z,3.20
2018-03-19T12:58:57.011Z,2.70
2018-03-19T12:59:57.025Z,4.50
2018-03-19T13:00:57.022Z,4.20
2018-03-19T13:01:57.023Z,4.00
2018-03-19T13:02:57.041Z,3.00